sensor_id;sensor_type;location;lat;lon;timestamp;pressure;altitude;pressure_sealevel;temperature;humidity
55466;BME280;41329;41.594;23.810;2023-02-12T00:00:42;96134.91;;;-0.93;46.71
55466;BME280;41329;41.594;23.810;2023-02-12T00:03:07;96134.91;;;-0.93;46.69
55466;BME280;41329;41.594;23.810;2023-02-12T00:05:33;96146.06;;;-0.95;47.22
55466;BME280;41329;41.594;23.810;2023-02-12T00:08:01;96137.38;;;-0.97;47.23
55466;BME280;41329;41.594;23.810;2023-02-12T00:10:26;96137.91;;;-0.95;47.30
55466;BME280;41329;41.594;23.810;2023-02-12T00:12:52;96130.63;;;-0.99;47.63
55466;BME280;41329;41.594;23.810;2023-02-12T00:15:18;96135.47;;;-0.91;47.60
55466;BME280;41329;41.594;23.810;2023-02-12T00:17:43;96130.28;;;-0.88;47.69
55466;BME280;41329;41.594;23.810;2023-02-12T00:20:09;96124.00;;;-0.83;47.98
55466;BME280;41329;41.594;23.810;2023-02-12T00:22:35;96107.75;;;-0.88;48.16
55466;BME280;41329;41.594;23.810;2023-02-12T00:25:00;96125.28;;;-0.71;48.26
55466;BME280;41329;41.594;23.810;2023-02-12T00:27:26;96122.00;;;-0.68;48.25
55466;BME280;41329;41.594;23.810;2023-02-12T00:29:51;96118.47;;;-0.68;47.83
55466;BME280;41329;41.594;23.810;2023-02-12T00:32:16;96127.19;;;-0.76;47.77
55466;BME280;41329;41.594;23.810;2023-02-12T00:34:47;96135.03;;;-0.70;47.29
55466;BME280;41329;41.594;23.810;2023-02-12T00:37:13;96131.53;;;-0.70;47.19
55466;BME280;41329;41.594;23.810;2023-02-12T00:39:39;96121.44;;;-0.65;47.65
55466;BME280;41329;41.594;23.810;2023-02-12T00:42:05;96101.69;;;-0.75;47.98
55466;BME280;41329;41.594;23.810;2023-02-12T00:44:30;96115.19;;;-0.65;48.36
55466;BME280;41329;41.594;23.810;2023-02-12T00:46:56;96105.19;;;-0.75;48.54
55466;BME280;41329;41.594;23.810;2023-02-12T00:49:22;96103.50;;;-0.66;48.64
55466;BME280;41329;41.594;23.810;2023-02-12T00:51:48;96062.59;;;-0.84;48.91
55466;BME280;41329;41.594;23.810;2023-02-12T00:54:13;96111.63;;;-0.61;48.10
55466;BME280;41329;41.594;23.810;2023-02-12T00:56:39;96109.38;;;-0.54;47.76
55466;BME280;41329;41.594;23.810;2023-02-12T00:59:04;96119.94;;;-0.47;47.82
55466;BME280;41329;41.594;23.810;2023-02-12T01:01:30;96097.50;;;-0.63;47.82
55466;BME280;41329;41.594;23.810;2023-02-12T01:03:55;96116.84;;;-0.69;47.54
55466;BME280;41329;41.594;23.810;2023-02-12T01:06:21;96109.84;;;-0.75;47.64
55466;BME280;41329;41.594;23.810;2023-02-12T01:08:49;96092.34;;;-1.03;48.16
55466;BME280;41329;41.594;23.810;2023-02-12T01:11:15;96121.59;;;-0.95;48.98
55466;BME280;41329;41.594;23.810;2023-02-12T01:13:41;96104.00;;;-1.02;49.42
55466;BME280;41329;41.594;23.810;2023-02-12T01:16:18;96106.72;;;-1.02;49.42
55466;BME280;41329;41.594;23.810;2023-02-12T01:18:44;96099.94;;;-1.05;49.50
55466;BME280;41329;41.594;23.810;2023-02-12T01:21:19;96109.72;;;-0.99;49.57
55466;BME280;41329;41.594;23.810;2023-02-12T01:23:46;96098.03;;;-0.99;49.70
55466;BME280;41329;41.594;23.810;2023-02-12T01:26:12;96093.38;;;-0.94;49.55
55466;BME280;41329;41.594;23.810;2023-02-12T01:28:39;96079.69;;;-1.17;49.18
55466;BME280;41329;41.594;23.810;2023-02-12T01:31:13;96076.22;;;-1.33;49.66
55466;BME280;41329;41.594;23.810;2023-02-12T01:33:39;96073.03;;;-1.45;50.53
55466;BME280;41329;41.594;23.810;2023-02-12T01:36:06;96064.03;;;-1.40;50.74
55466;BME280;41329;41.594;23.810;2023-02-12T01:38:31;96067.53;;;-1.35;51.30
55466;BME280;41329;41.594;23.810;2023-02-12T01:41:20;96070.47;;;-1.26;51.18
55466;BME280;41329;41.594;23.810;2023-02-12T01:44:12;96070.47;;;-1.26;50.98
55466;BME280;41329;41.594;23.810;2023-02-12T01:46:38;96054.50;;;-1.33;51.02
55466;BME280;41329;41.594;23.810;2023-02-12T01:49:06;96054.69;;;-1.19;50.44
55466;BME280;41329;41.594;23.810;2023-02-12T01:51:33;96072.59;;;-1.13;50.56
55466;BME280;41329;41.594;23.810;2023-02-12T01:54:02;96043.84;;;-1.19;50.52
55466;BME280;41329;41.594;23.810;2023-02-12T01:56:28;96053.88;;;-1.15;50.48
55466;BME280;41329;41.594;23.810;2023-02-12T01:58:54;96041.94;;;-1.19;50.59
55466;BME280;41329;41.594;23.810;2023-02-12T02:01:25;96043.31;;;-1.26;50.86
55466;BME280;41329;41.594;23.810;2023-02-12T02:03:56;96057.69;;;-1.21;50.92
55466;BME280;41329;41.594;23.810;2023-02-12T02:06:29;96040.34;;;-1.25;50.57
55466;BME280;41329;41.594;23.810;2023-02-12T02:08:56;96046.78;;;-1.16;50.18
55466;BME280;41329;41.594;23.810;2023-02-12T02:11:22;96041.97;;;-1.24;50.21
55466;BME280;41329;41.594;23.810;2023-02-12T02:14:06;96051.94;;;-1.14;50.20
55466;BME280;41329;41.594;23.810;2023-02-12T02:33:55;96035.28;;;-1.41;51.24
55466;BME280;41329;41.594;23.810;2023-02-12T02:36:35;96046.66;;;-1.39;50.66
55466;BME280;41329;41.594;23.810;2023-02-12T02:39:12;96025.53;;;-1.42;49.99
55466;BME280;41329;41.594;23.810;2023-02-12T02:41:54;96010.41;;;-1.58;50.38
55466;BME280;41329;41.594;23.810;2023-02-12T02:44:36;96020.72;;;-1.60;50.32
55466;BME280;41329;41.594;23.810;2023-02-12T02:47:06;96022.38;;;-1.69;50.10
55466;BME280;41329;41.594;23.810;2023-02-12T02:49:39;96037.91;;;-1.80;50.14
55466;BME280;41329;41.594;23.810;2023-02-12T02:52:09;96030.91;;;-1.91;50.58
55466;BME280;41329;41.594;23.810;2023-02-12T02:54:43;96031.97;;;-1.92;51.39
55466;BME280;41329;41.594;23.810;2023-02-12T02:57:17;96036.31;;;-1.96;51.39
55466;BME280;41329;41.594;23.810;2023-02-12T02:59:50;96047.47;;;-1.97;51.51
55466;BME280;41329;41.594;23.810;2023-02-12T03:02:23;96047.78;;;-2.14;51.59
55466;BME280;41329;41.594;23.810;2023-02-12T03:05:03;96047.28;;;-2.31;51.50
55466;BME280;41329;41.594;23.810;2023-02-12T03:07:36;96049.72;;;-2.29;52.18
55466;BME280;41329;41.594;23.810;2023-02-12T03:15:19;96047.00;;;-2.34;52.42
55466;BME280;41329;41.594;23.810;2023-02-12T03:17:49;96054.59;;;-2.26;52.55
55466;BME280;41329;41.594;23.810;2023-02-12T03:20:18;96009.63;;;-2.42;52.56
55466;BME280;41329;41.594;23.810;2023-02-12T03:22:50;96047.81;;;-2.24;52.97
55466;BME280;41329;41.594;23.810;2023-02-12T03:25:22;96058.06;;;-2.11;52.88
55466;BME280;41329;41.594;23.810;2023-02-12T03:28:08;96052.38;;;-2.04;52.49
55466;BME280;41329;41.594;23.810;2023-02-12T03:30:50;96052.38;;;-2.09;51.58
55466;BME280;41329;41.594;23.810;2023-02-12T03:36:18;96054.59;;;-2.26;51.82
55466;BME280;41329;41.594;23.810;2023-02-12T03:38:48;96042.69;;;-2.30;52.35
55466;BME280;41329;41.594;23.810;2023-02-12T03:41:28;96042.13;;;-2.32;51.90
55466;BME280;41329;41.594;23.810;2023-02-12T03:44:01;96040.78;;;-2.35;52.33
55466;BME280;41329;41.594;23.810;2023-02-12T03:49:16;96011.28;;;-2.61;52.68
55466;BME280;41329;41.594;23.810;2023-02-12T03:51:44;96035.63;;;-2.41;53.27
55466;BME280;41329;41.594;23.810;2023-02-12T03:54:11;96026.19;;;-2.49;53.16
55466;BME280;41329;41.594;23.810;2023-02-12T03:59:23;96030.78;;;-2.59;53.00
55466;BME280;41329;41.594;23.810;2023-02-12T04:01:51;96037.00;;;-2.49;53.75
55466;BME280;41329;41.594;23.810;2023-02-12T04:04:17;96032.41;;;-2.53;53.96
55466;BME280;41329;41.594;23.810;2023-02-12T04:06:45;96020.78;;;-2.54;54.41
55466;BME280;41329;41.594;23.810;2023-02-12T04:09:11;96017.75;;;-2.42;54.22
55466;BME280;41329;41.594;23.810;2023-02-12T04:20:03;96012.53;;;-2.14;53.52
55466;BME280;41329;41.594;23.810;2023-02-12T04:33:25;96009.31;;;-2.16;53.59
55466;BME280;41329;41.594;23.810;2023-02-12T04:35:54;96016.34;;;-2.20;54.04
55466;BME280;41329;41.594;23.810;2023-02-12T04:38:28;96000.38;;;-2.26;54.07
55466;BME280;41329;41.594;23.810;2023-02-12T04:40:57;95957.34;;;-2.43;54.29
55466;BME280;41329;41.594;23.810;2023-02-12T04:43:31;96012.78;;;-2.05;54.27
55466;BME280;41329;41.594;23.810;2023-02-12T04:45:59;96025.22;;;-1.99;54.06
55466;BME280;41329;41.594;23.810;2023-02-12T04:48:25;96012.53;;;-2.04;53.66
55466;BME280;41329;41.594;23.810;2023-02-12T04:50:51;96004.16;;;-2.17;53.64
55466;BME280;41329;41.594;23.810;2023-02-12T04:53:16;96009.00;;;-2.09;54.23
55466;BME280;41329;41.594;23.810;2023-02-12T04:55:42;96003.84;;;-2.06;54.72
55466;BME280;41329;41.594;23.810;2023-02-12T04:58:07;95988.97;;;-2.13;54.32
55466;BME280;41329;41.594;23.810;2023-02-12T05:00:33;95981.34;;;-2.11;54.33
55466;BME280;41329;41.594;23.810;2023-02-12T05:02:59;95990.78;;;-1.94;54.35
55466;BME280;41329;41.594;23.810;2023-02-12T05:05:24;95981.59;;;-2.03;54.60
55466;BME280;41329;41.594;23.810;2023-02-12T05:07:50;95976.75;;;-2.11;54.42
55466;BME280;41329;41.594;23.810;2023-02-12T05:10:15;96000.31;;;-2.11;54.39
55466;BME280;41329;41.594;23.810;2023-02-12T05:12:41;96021.19;;;-2.07;54.43
55466;BME280;41329;41.594;23.810;2023-02-12T05:15:07;96027.13;;;-2.05;54.02
55466;BME280;41329;41.594;23.810;2023-02-12T05:17:33;96026.06;;;-2.04;54.69
55466;BME280;41329;41.594;23.810;2023-02-12T05:19:59;96030.44;;;-2.08;55.13
55466;BME280;41329;41.594;23.810;2023-02-12T05:22:24;96039.91;;;-2.05;54.88
55466;BME280;41329;41.594;23.810;2023-02-12T05:24:49;96047.47;;;-2.07;54.91
55466;BME280;41329;41.594;23.810;2023-02-12T05:27:15;96013.38;;;-2.23;55.07
55466;BME280;41329;41.594;23.810;2023-02-12T05:29:40;96035.84;;;-2.08;55.32
55466;BME280;41329;41.594;23.810;2023-02-12T05:32:06;96039.91;;;-2.05;55.15
55466;BME280;41329;41.594;23.810;2023-02-12T05:34:32;96040.41;;;-2.03;55.28
55466;BME280;41329;41.594;23.810;2023-02-12T05:36:58;95990.38;;;-2.36;55.39
55466;BME280;41329;41.594;23.810;2023-02-12T05:39:23;96047.81;;;-2.29;55.07
55466;BME280;41329;41.594;23.810;2023-02-12T05:41:49;96057.03;;;-2.25;55.43
55466;BME280;41329;41.594;23.810;2023-02-12T05:44:14;96064.38;;;-2.35;56.02
55466;BME280;41329;41.594;23.810;2023-02-12T05:46:40;96048.38;;;-2.52;56.14
55466;BME280;41329;41.594;23.810;2023-02-12T05:49:07;96049.22;;;-2.51;56.70
55466;BME280;41329;41.594;23.810;2023-02-12T05:51:33;96056.22;;;-2.40;56.68
55466;BME280;41329;41.594;23.810;2023-02-12T05:54:02;96066.53;;;-2.42;56.91
55466;BME280;41329;41.594;23.810;2023-02-12T05:56:30;95991.00;;;-3.09;57.48
55466;BME280;41329;41.594;23.810;2023-02-12T05:59:04;96060.59;;;-2.79;57.90
55466;BME280;41329;41.594;23.810;2023-02-12T06:01:33;96049.75;;;-2.64;58.57
55466;BME280;41329;41.594;23.810;2023-02-12T06:04:00;96044.88;;;-2.62;58.50
55466;BME280;41329;41.594;23.810;2023-02-12T06:06:27;96051.63;;;-2.40;58.48
55466;BME280;41329;41.594;23.810;2023-02-12T06:08:53;96045.09;;;-2.34;58.29
55466;BME280;41329;41.594;23.810;2023-02-12T06:11:18;96037.00;;;-2.44;58.00
55466;BME280;41329;41.594;23.810;2023-02-12T06:13:45;96045.34;;;-2.20;58.52
55466;BME280;41329;41.594;23.810;2023-02-12T06:16:29;96057.78;;;-2.04;57.95
55466;BME280;41329;41.594;23.810;2023-02-12T06:18:55;96060.47;;;-1.99;57.84
55466;BME280;41329;41.594;23.810;2023-02-12T06:21:22;96051.81;;;-2.11;57.42
55466;BME280;41329;41.594;23.810;2023-02-12T06:23:49;96004.19;;;-2.37;57.61
55466;BME280;41329;41.594;23.810;2023-02-12T06:26:15;96068.34;;;-2.03;57.46
55466;BME280;41329;41.594;23.810;2023-02-12T06:28:41;96073.50;;;-1.96;58.08
55466;BME280;41329;41.594;23.810;2023-02-12T06:31:25;96077.22;;;-1.82;58.22
55466;BME280;41329;41.594;23.810;2023-02-12T06:33:51;96048.53;;;-1.93;58.31
55466;BME280;41329;41.594;23.810;2023-02-12T06:36:17;96082.63;;;-1.67;58.18
55466;BME280;41329;41.594;23.810;2023-02-12T06:38:43;96090.22;;;-1.69;58.40
55466;BME280;41329;41.594;23.810;2023-02-12T06:41:09;96081.03;;;-1.78;58.76
55466;BME280;41329;41.594;23.810;2023-02-12T06:43:34;96052.41;;;-2.14;58.79
55466;BME280;41329;41.594;23.810;2023-02-12T06:46:01;96102.78;;;-2.03;59.30
55466;BME280;41329;41.594;23.810;2023-02-12T06:48:27;96098.75;;;-2.16;59.70
55466;BME280;41329;41.594;23.810;2023-02-12T06:50:53;96094.16;;;-2.25;60.08
55466;BME280;41329;41.594;23.810;2023-02-12T06:53:18;96109.56;;;-2.06;59.90
55466;BME280;41329;41.594;23.810;2023-02-12T06:55:44;96070.84;;;-2.36;60.11
55466;BME280;41329;41.594;23.810;2023-02-12T06:58:09;96113.38;;;-2.22;60.55
55466;BME280;41329;41.594;23.810;2023-02-12T07:00:35;96123.41;;;-2.17;61.05
55466;BME280;41329;41.594;23.810;2023-02-12T07:03:00;96127.75;;;-2.16;61.03
55466;BME280;41329;41.594;23.810;2023-02-12T07:05:26;96109.31;;;-2.14;61.16
55466;BME280;41329;41.594;23.810;2023-02-12T07:07:51;96121.19;;;-1.90;61.11
55466;BME280;41329;41.594;23.810;2023-02-12T07:10:17;96129.84;;;-1.78;60.80
55466;BME280;41329;41.594;23.810;2023-02-12T07:12:43;96133.59;;;-1.64;60.44
55466;BME280;41329;41.594;23.810;2023-02-12T07:15:09;96121.63;;;-1.53;60.33
55466;BME280;41329;41.594;23.810;2023-02-12T07:17:35;96128.06;;;-1.39;60.53
55466;BME280;41329;41.594;23.810;2023-02-12T07:20:01;96113.72;;;-1.40;60.47
55466;BME280;41329;41.594;23.810;2023-02-12T07:22:27;96130.97;;;-1.21;60.75
55466;BME280;41329;41.594;23.810;2023-02-12T07:24:52;96124.16;;;-1.08;60.58
55466;BME280;41329;41.594;23.810;2023-02-12T07:27:18;96127.09;;;-1.05;60.53
55466;BME280;41329;41.594;23.810;2023-02-12T07:29:43;96120.03;;;-1.01;60.50
55466;BME280;41329;41.594;23.810;2023-02-12T07:32:09;96117.25;;;-0.91;60.57
55466;BME280;41329;41.594;23.810;2023-02-12T07:34:34;96105.28;;;-0.85;60.10
55466;BME280;41329;41.594;23.810;2023-02-12T07:36:59;96097.81;;;-0.69;60.02
55466;BME280;41329;41.594;23.810;2023-02-12T07:39:25;96113.75;;;-0.58;60.01
55466;BME280;41329;41.594;23.810;2023-02-12T07:41:55;96110.25;;;-0.58;59.51
55466;BME280;41329;41.594;23.810;2023-02-12T07:44:20;96109.75;;;-0.65;59.59
55466;BME280;41329;41.594;23.810;2023-02-12T07:46:47;96101.63;;;-0.70;59.61
55466;BME280;41329;41.594;23.810;2023-02-12T07:49:15;96110.09;;;-0.77;60.15
55466;BME280;41329;41.594;23.810;2023-02-12T07:51:41;96112.06;;;-0.87;60.42
55466;BME280;41329;41.594;23.810;2023-02-12T07:54:07;96125.13;;;-0.89;60.35
55466;BME280;41329;41.594;23.810;2023-02-12T07:56:34;96110.66;;;-1.28;60.16
55466;BME280;41329;41.594;23.810;2023-02-12T07:59:04;96134.78;;;-1.17;60.37
55466;BME280;41329;41.594;23.810;2023-02-12T08:01:38;96133.91;;;-1.07;60.73
55466;BME280;41329;41.594;23.810;2023-02-12T08:04:07;96123.84;;;-1.02;60.33
55466;BME280;41329;41.594;23.810;2023-02-12T08:06:35;96122.94;;;-0.87;59.67
55466;BME280;41329;41.594;23.810;2023-02-12T08:09:04;96132.13;;;-0.78;59.76
55466;BME280;41329;41.594;23.810;2023-02-12T08:11:30;96137.47;;;-0.68;59.19
55466;BME280;41329;41.594;23.810;2023-02-12T08:13:57;96125.22;;;-0.66;58.75
55466;BME280;41329;41.594;23.810;2023-02-12T08:16:24;96125.88;;;-0.79;58.80
55466;BME280;41329;41.594;23.810;2023-02-12T08:18:51;96122.88;;;-0.77;58.70
55466;BME280;41329;41.594;23.810;2023-02-12T08:21:22;96128.22;;;-0.62;58.64
55466;BME280;41329;41.594;23.810;2023-02-12T08:23:48;96140.84;;;-0.43;58.59
55466;BME280;41329;41.594;23.810;2023-02-12T08:26:23;96115.59;;;-0.48;57.95
55466;BME280;41329;41.594;23.810;2023-02-12T08:29:18;96126.69;;;-0.40;57.84
55466;BME280;41329;41.594;23.810;2023-02-12T08:31:46;96125.88;;;-0.40;57.96
55466;BME280;41329;41.594;23.810;2023-02-12T08:34:22;96097.63;;;-0.44;58.50
55466;BME280;41329;41.594;23.810;2023-02-12T08:36:50;96117.78;;;-0.17;58.31
55466;BME280;41329;41.594;23.810;2023-02-12T08:39:17;96120.06;;;-0.29;57.76
55466;BME280;41329;41.594;23.810;2023-02-12T08:41:42;96129.38;;;-0.06;58.11
55466;BME280;41329;41.594;23.810;2023-02-12T08:44:08;96126.63;;;-0.01;58.12
55466;BME280;41329;41.594;23.810;2023-02-12T08:46:36;96124.56;;;0.14;58.24
55466;BME280;41329;41.594;23.810;2023-02-12T08:49:05;96127.97;;;0.25;57.87
55466;BME280;41329;41.594;23.810;2023-02-12T08:51:33;96129.22;;;0.38;57.82
55466;BME280;41329;41.594;23.810;2023-02-12T08:54:02;96127.78;;;0.45;57.38
55466;BME280;41329;41.594;23.810;2023-02-12T08:56:31;96132.13;;;0.46;56.84
55466;BME280;41329;41.594;23.810;2023-02-12T08:58:59;96126.09;;;0.49;57.16
55466;BME280;41329;41.594;23.810;2023-02-12T09:01:27;96119.25;;;0.52;56.71
55466;BME280;41329;41.594;23.810;2023-02-12T09:03:53;96115.97;;;0.55;57.10
55466;BME280;41329;41.594;23.810;2023-02-12T09:06:20;96129.78;;;0.82;57.37
55466;BME280;41329;41.594;23.810;2023-02-12T09:08:46;96139.59;;;1.06;57.58
55466;BME280;41329;41.594;23.810;2023-02-12T09:11:14;96152.19;;;1.21;56.81
55466;BME280;41329;41.594;23.810;2023-02-12T09:13:44;96141.31;;;1.39;57.10
55466;BME280;41329;41.594;23.810;2023-02-12T09:16:10;96121.91;;;1.41;56.06
55466;BME280;41329;41.594;23.810;2023-02-12T09:18:37;96131.28;;;1.53;55.43
55466;BME280;41329;41.594;23.810;2023-02-12T09:21:05;96141.28;;;1.76;54.90
55466;BME280;41329;41.594;23.810;2023-02-12T09:23:31;96128.16;;;1.78;53.53
55466;BME280;41329;41.594;23.810;2023-02-12T09:25:56;96146.69;;;1.95;51.47
55466;BME280;41329;41.594;23.810;2023-02-12T09:28:22;96139.44;;;2.04;51.76
55466;BME280;41329;41.594;23.810;2023-02-12T09:30:48;96145.56;;;2.14;50.45
55466;BME280;41329;41.594;23.810;2023-02-12T09:33:13;96150.22;;;2.14;49.82
55466;BME280;41329;41.594;23.810;2023-02-12T09:35:39;96142.88;;;2.28;49.93
55466;BME280;41329;41.594;23.810;2023-02-12T09:38:06;96141.28;;;2.40;49.51
55466;BME280;41329;41.594;23.810;2023-02-12T09:45:59;96139.50;;;2.90;48.91
55466;BME280;41329;41.594;23.810;2023-02-12T09:51:09;96141.00;;;2.96;46.75
55466;BME280;41329;41.594;23.810;2023-02-12T09:53:39;96125.53;;;2.91;45.22
55466;BME280;41329;41.594;23.810;2023-02-12T09:56:12;96135.66;;;3.04;45.63
55466;BME280;41329;41.594;23.810;2023-02-12T09:58:46;96136.56;;;3.13;45.90
55466;BME280;41329;41.594;23.810;2023-02-12T10:01:17;96129.75;;;3.24;46.60
55466;BME280;41329;41.594;23.810;2023-02-12T10:03:44;96126.91;;;3.43;46.15
55466;BME280;41329;41.594;23.810;2023-02-12T10:06:14;96127.06;;;3.60;44.90
55466;BME280;41329;41.594;23.810;2023-02-12T10:09:14;96126.63;;;3.66;44.25
55466;BME280;41329;41.594;23.810;2023-02-12T10:20:06;96111.91;;;3.98;43.49
55466;BME280;41329;41.594;23.810;2023-02-12T10:22:42;96104.00;;;3.96;43.63
55466;BME280;41329;41.594;23.810;2023-02-12T10:27:59;96109.75;;;4.17;43.45
55466;BME280;41329;41.594;23.810;2023-02-12T10:30:35;96108.97;;;4.16;43.08
55466;BME280;41329;41.594;23.810;2023-02-12T10:33:08;96101.09;;;4.23;42.17
55466;BME280;41329;41.594;23.810;2023-02-12T10:35:44;96100.34;;;4.31;42.78
55466;BME280;41329;41.594;23.810;2023-02-12T10:38:18;96092.00;;;4.36;41.79
55466;BME280;41329;41.594;23.810;2023-02-12T10:40:45;96092.16;;;4.09;41.36
55466;BME280;41329;41.594;23.810;2023-02-12T10:43:13;96097.34;;;4.11;41.56
55466;BME280;41329;41.594;23.810;2023-02-12T10:45:40;96099.03;;;4.20;41.61
55466;BME280;41329;41.594;23.810;2023-02-12T10:48:22;96104.59;;;4.15;41.92
55466;BME280;41329;41.594;23.810;2023-02-12T10:53:24;96100.56;;;4.35;41.60
55466;BME280;41329;41.594;23.810;2023-02-12T10:56:24;96079.59;;;4.39;42.71
55466;BME280;41329;41.594;23.810;2023-02-12T11:01:37;96092.53;;;4.77;42.36
55466;BME280;41329;41.594;23.810;2023-02-12T11:04:24;96077.94;;;4.99;43.06
55466;BME280;41329;41.594;23.810;2023-02-12T11:07:04;96100.91;;;5.28;41.07
55466;BME280;41329;41.594;23.810;2023-02-12T11:09:37;96096.91;;;5.43;40.27
55466;BME280;41329;41.594;23.810;2023-02-12T11:12:38;96098.69;;;5.64;41.02
55466;BME280;41329;41.594;23.810;2023-02-12T11:15:19;96097.13;;;5.80;40.45
55466;BME280;41329;41.594;23.810;2023-02-12T11:17:59;96089.19;;;6.04;41.46
55466;BME280;41329;41.594;23.810;2023-02-12T11:20:40;96095.94;;;6.32;41.40
55466;BME280;41329;41.594;23.810;2023-02-12T11:28:23;96070.97;;;6.54;39.20
55466;BME280;41329;41.594;23.810;2023-02-12T11:30:54;96091.34;;;6.62;37.55
55466;BME280;41329;41.594;23.810;2023-02-12T11:33:24;96087.94;;;6.65;37.73
55466;BME280;41329;41.594;23.810;2023-02-12T11:35:52;96084.84;;;6.67;38.91
55466;BME280;41329;41.594;23.810;2023-02-12T11:38:25;96071.22;;;6.79;38.54
55466;BME280;41329;41.594;23.810;2023-02-12T11:40:56;96079.88;;;6.98;38.04
55466;BME280;41329;41.594;23.810;2023-02-12T11:43:23;96018.16;;;6.78;38.96
55466;BME280;41329;41.594;23.810;2023-02-12T11:45:50;96068.31;;;7.13;36.71
55466;BME280;41329;41.594;23.810;2023-02-12T11:48:37;96066.22;;;7.10;37.62
55466;BME280;41329;41.594;23.810;2023-02-12T11:51:08;96063.22;;;7.23;37.98
55466;BME280;41329;41.594;23.810;2023-02-12T11:53:46;96061.22;;;7.32;37.77
55466;BME280;41329;41.594;23.810;2023-02-12T11:56:14;96070.31;;;7.33;36.09
55466;BME280;41329;41.594;23.810;2023-02-12T11:58:40;96062.50;;;7.35;37.07
55466;BME280;41329;41.594;23.810;2023-02-12T12:01:23;96050.84;;;7.38;35.75
55466;BME280;41329;41.594;23.810;2023-02-12T12:03:59;96053.78;;;7.33;35.85
55466;BME280;41329;41.594;23.810;2023-02-12T12:09:24;96058.09;;;7.63;36.07
55466;BME280;41329;41.594;23.810;2023-02-12T12:17:43;96051.19;;;7.57;35.96
55466;BME280;41329;41.594;23.810;2023-02-12T12:20:32;96042.50;;;7.26;35.64
55466;BME280;41329;41.594;23.810;2023-02-12T12:23:08;96055.28;;;7.51;35.81
55466;BME280;41329;41.594;23.810;2023-02-12T12:25:42;96060.66;;;7.47;35.13
55466;BME280;41329;41.594;23.810;2023-02-12T12:34:11;96049.91;;;7.95;35.15
55466;BME280;41329;41.594;23.810;2023-02-12T13:03:46;96028.34;;;7.56;36.81
55466;BME280;41329;41.594;23.810;2023-02-12T13:06:28;96087.00;;;7.98;36.12
55466;BME280;41329;41.594;23.810;2023-02-12T13:14:35;96095.00;;;8.32;35.69
55466;BME280;41329;41.594;23.810;2023-02-12T13:22:47;96095.88;;;8.56;34.43
55466;BME280;41329;41.594;23.810;2023-02-12T13:25:46;96090.97;;;8.62;34.36
55466;BME280;41329;41.594;23.810;2023-02-12T13:28:21;96052.91;;;8.23;34.52
55466;BME280;41329;41.594;23.810;2023-02-12T13:30:51;96093.81;;;8.53;34.90
55466;BME280;41329;41.594;23.810;2023-02-12T13:33:27;96094.06;;;8.60;34.56
55466;BME280;41329;41.594;23.810;2023-02-12T13:35:57;96084.88;;;8.68;34.81
55466;BME280;41329;41.594;23.810;2023-02-12T13:38:27;96099.88;;;8.91;34.69
55466;BME280;41329;41.594;23.810;2023-02-12T13:41:02;96107.38;;;9.15;35.04
55466;BME280;41329;41.594;23.810;2023-02-12T13:46:55;96108.66;;;9.53;33.91
55466;BME280;41329;41.594;23.810;2023-02-12T13:49:32;96093.09;;;9.49;34.42
55466;BME280;41329;41.594;23.810;2023-02-12T13:52:05;96109.22;;;9.71;35.08
55466;BME280;41329;41.594;23.810;2023-02-12T13:57:30;96113.09;;;9.94;34.19
55466;BME280;41329;41.594;23.810;2023-02-12T13:59:56;96110.06;;;9.99;33.51
55466;BME280;41329;41.594;23.810;2023-02-12T14:04:56;96115.75;;;9.90;33.23
55466;BME280;41329;41.594;23.810;2023-02-12T14:07:42;96117.69;;;9.90;33.80
55466;BME280;41329;41.594;23.810;2023-02-12T14:10:29;96129.19;;;10.04;34.39
55466;BME280;41329;41.594;23.810;2023-02-12T14:13:08;96127.13;;;10.13;33.49
55466;BME280;41329;41.594;23.810;2023-02-12T14:15:37;96137.44;;;10.28;33.31
55466;BME280;41329;41.594;23.810;2023-02-12T14:20:35;96135.78;;;10.11;33.04
55466;BME280;41329;41.594;23.810;2023-02-12T14:30:37;96129.78;;;9.97;33.24
55466;BME280;41329;41.594;23.810;2023-02-12T14:43:03;96143.41;;;9.54;33.78
55466;BME280;41329;41.594;23.810;2023-02-12T14:45:47;96149.84;;;9.46;33.94
55466;BME280;41329;41.594;23.810;2023-02-12T14:48:40;96152.81;;;9.29;34.07
55466;BME280;41329;41.594;23.810;2023-02-12T14:51:22;96155.56;;;9.17;34.43
55466;BME280;41329;41.594;23.810;2023-02-12T14:53:52;96150.38;;;9.04;34.45
55466;BME280;41329;41.594;23.810;2023-02-12T14:56:22;96155.69;;;9.09;34.45
55466;BME280;41329;41.594;23.810;2023-02-12T14:58:49;96157.75;;;9.00;34.43
55466;BME280;41329;41.594;23.810;2023-02-12T15:01:17;96113.75;;;8.71;34.32
55466;BME280;41329;41.594;23.810;2023-02-12T15:03:53;96170.28;;;8.97;34.51
55466;BME280;41329;41.594;23.810;2023-02-12T15:06:21;96171.63;;;8.91;34.44
55466;BME280;41329;41.594;23.810;2023-02-12T15:09:00;96180.84;;;8.95;34.98
55466;BME280;41329;41.594;23.810;2023-02-12T15:11:35;96171.38;;;8.84;34.60
55466;BME280;41329;41.594;23.810;2023-02-12T15:14:11;96198.88;;;8.93;35.41
55466;BME280;41329;41.594;23.810;2023-02-12T15:24:42;96215.00;;;8.70;36.28
55466;BME280;41329;41.594;23.810;2023-02-12T15:27:12;96230.63;;;8.66;36.29
55466;BME280;41329;41.594;23.810;2023-02-12T15:29:47;96222.50;;;8.49;36.64
55466;BME280;41329;41.594;23.810;2023-02-12T15:32:27;96241.00;;;8.49;36.38
55466;BME280;41329;41.594;23.810;2023-02-12T15:34:54;96217.97;;;8.24;36.73
55466;BME280;41329;41.594;23.810;2023-02-12T15:37:25;96245.53;;;8.24;36.70
55466;BME280;41329;41.594;23.810;2023-02-12T15:39:54;96242.50;;;8.17;36.72
55466;BME280;41329;41.594;23.810;2023-02-12T15:42:35;96226.94;;;7.92;37.14
55466;BME280;41329;41.594;23.810;2023-02-12T15:47:34;96247.41;;;7.83;37.10
55466;BME280;41329;41.594;23.810;2023-02-12T15:50:00;96263.78;;;7.79;37.02
55466;BME280;41329;41.594;23.810;2023-02-12T15:52:33;96262.56;;;7.60;37.60
55466;BME280;41329;41.594;23.810;2023-02-12T15:55:02;96269.59;;;7.49;37.60
55466;BME280;41329;41.594;23.810;2023-02-12T15:57:29;96283.88;;;7.42;37.88
55466;BME280;41329;41.594;23.810;2023-02-12T16:00:02;96287.16;;;7.19;38.23